Time;durP1;ratioP1;P1;durP2;ratioP2;P2;SDS_P1;SDS_P2;PMS_P1;PMS_P2;Temp;Humidity;BMP_temperature;BMP_pressure;BME280_temperature;BME280_humidity;BME280_pressure;Samples;Min_cycle;Max_cycle;Signal;HPM_P1;HPM_P2
2021/10/16 00:03:25;;;;;;;3.40;1.98;;;;;;;-140.79;100.00;63287.88;5085346;22;20065;-61
2021/10/16 00:05:51;;;;;;;2.65;1.42;;;;;;;-140.79;100.00;63287.88;5004469;28;20034;-60
2021/10/16 00:08:16;;;;;;;2.72;1.65;;;;;;;-140.79;100.00;63287.88;5004854;28;20032;-61
2021/10/16 00:10:41;;;;;;;2.88;1.80;;;;;;;-140.79;100.00;63287.88;5003852;28;20041;-61
2021/10/16 00:13:07;;;;;;;2.35;1.55;;;;;;;-140.79;100.00;63287.88;5005100;28;20476;-61
2021/10/16 00:15:32;;;;;;;2.80;1.73;;;;;;;-140.79;100.00;63287.88;5003715;28;20033;-61
2021/10/16 00:17:58;;;;;;;2.80;1.98;;;;;;;-140.79;100.00;63287.88;5004944;28;20026;-60
2021/10/16 00:20:24;;;;;;;2.67;1.60;;;;;;;-140.79;100.00;63287.88;5003856;28;20112;-61
2021/10/16 00:22:49;;;;;;;2.42;1.65;;;;;;;-140.79;100.00;63287.88;5003694;28;20536;-61
2021/10/16 00:25:15;;;;;;;3.20;1.70;;;;;;;-140.79;100.00;63287.88;5009302;28;20031;-60
2021/10/16 00:27:40;;;;;;;2.65;1.63;;;;;;;-140.79;100.00;63287.88;5026495;28;20029;-61
2021/10/16 00:30:06;;;;;;;2.67;1.60;;;;;;;-140.79;100.00;63287.88;5010980;28;20030;-61
2021/10/16 00:32:32;;;;;;;2.55;1.60;;;;;;;-140.79;100.00;63287.88;5011596;28;20029;-61
2021/10/16 00:34:57;;;;;;;3.10;1.60;;;;;;;-140.79;100.00;63287.88;5010035;28;20026;-61
2021/10/16 00:37:24;;;;;;;2.88;1.50;;;;;;;-140.79;100.00;63287.88;5011442;28;20038;-61
2021/10/16 00:39:52;;;;;;;2.95;1.63;;;;;;;-140.79;100.00;63287.88;5011365;28;20112;-61
2021/10/16 00:42:18;;;;;;;2.13;1.42;;;;;;;-140.79;100.00;63287.88;5011473;28;20029;-61
2021/10/16 00:44:43;;;;;;;2.50;1.52;;;;;;;-140.79;100.00;63287.88;5011392;28;20026;-61
2021/10/16 00:47:08;;;;;;;1.95;1.40;;;;;;;-140.79;100.00;63287.88;5011260;28;20431;-61
2021/10/16 00:49:35;;;;;;;2.25;1.48;;;;;;;-140.79;100.00;63287.88;5011585;28;20758;-61
2021/10/16 00:52:00;;;;;;;2.25;1.20;;;;;;;-140.79;100.00;63287.88;5011434;28;20030;-61
2021/10/16 00:54:26;;;;;;;2.63;1.60;;;;;;;-140.79;100.00;63287.88;5026435;28;20040;-61
2021/10/16 00:56:52;;;;;;;2.90;1.60;;;;;;;-140.79;100.00;63287.88;5009683;28;20025;-61
2021/10/16 00:59:18;;;;;;;2.88;1.60;;;;;;;-140.79;100.00;63287.88;5011351;28;20030;-61
2021/10/16 01:01:44;;;;;;;3.13;1.50;;;;;;;-140.79;100.00;63287.88;5011594;28;20038;-61
2021/10/16 01:04:10;;;;;;;2.90;1.73;;;;;;;-140.79;100.00;63287.88;5011019;28;20095;-61
2021/10/16 01:06:36;;;;;;;2.88;1.55;;;;;;;-140.79;100.00;63287.88;5011067;28;20729;-61
2021/10/16 01:09:07;;;;;;;2.63;1.50;;;;;;;-140.79;100.00;63287.88;5011165;28;20536;-61
2021/10/16 01:11:41;;;;;;;2.70;1.23;;;;;;;-140.79;100.00;63287.88;5011140;28;20111;-61
2021/10/16 01:14:10;;;;;;;2.78;1.60;;;;;;;-140.79;100.00;63287.88;5009727;28;20026;-62
2021/10/16 01:16:36;;;;;;;2.17;1.38;;;;;;;-140.79;100.00;63287.88;5011311;28;20104;-61
2021/10/16 01:19:02;;;;;;;1.73;1.08;;;;;;;-140.79;100.00;63287.88;5011089;28;20168;-61
2021/10/16 01:21:29;;;;;;;2.08;1.10;;;;;;;-140.79;100.00;63287.88;5009549;28;20574;-61
2021/10/16 01:23:55;;;;;;;2.47;1.45;;;;;;;-140.79;100.00;63287.88;5009632;28;20519;-61
2021/10/16 01:26:20;;;;;;;1.95;1.27;;;;;;;-140.79;100.00;63287.88;5010793;28;20021;-61
2021/10/16 01:28:45;;;;;;;1.95;1.50;;;;;;;-140.79;100.00;63287.88;5025931;28;20033;-61
2021/10/16 01:31:11;;;;;;;2.20;1.42;;;;;;;-140.79;100.00;63287.88;5010977;28;20041;-61
2021/10/16 01:33:37;;;;;;;1.75;1.13;;;;;;;-140.79;100.00;63287.88;5010923;28;20026;-61
2021/10/16 01:36:04;;;;;;;2.67;1.30;;;;;;;-140.79;100.00;63287.88;5008321;28;20018;-61
2021/10/16 01:38:30;;;;;;;2.15;1.25;;;;;;;-140.79;100.00;63287.88;5007680;28;20022;-61
2021/10/16 01:40:55;;;;;;;3.20;1.33;;;;;;;-140.79;100.00;63287.88;5006607;28;20048;-61
2021/10/16 01:43:21;;;;;;;2.22;1.20;;;;;;;-140.79;100.00;63287.88;5007731;28;20032;-60
2021/10/16 01:45:47;;;;;;;2.17;1.30;;;;;;;-140.79;100.00;63287.88;5007610;28;20022;-61
2021/10/16 01:48:12;;;;;;;2.20;1.30;;;;;;;-140.79;100.00;63287.88;5008225;28;20080;-61
2021/10/16 01:50:39;;;;;;;1.90;1.20;;;;;;;-140.79;100.00;63287.88;5006733;28;20030;-61
2021/10/16 01:53:09;;;;;;;2.25;1.40;;;;;;;-140.79;100.00;63287.88;5022909;28;20137;-61
2021/10/16 01:55:34;;;;;;;2.20;1.30;;;;;;;-140.79;100.00;63287.88;5007733;28;20900;-61
2021/10/16 01:58:06;;;;;;;1.63;0.98;;;;;;;-140.79;100.00;63287.88;5005696;28;20092;-61
2021/10/16 02:00:32;;;;;;;2.13;1.35;;;;;;;-140.79;100.00;63287.88;5007285;28;20481;-61
2021/10/16 02:02:57;;;;;;;1.83;1.10;;;;;;;-140.79;100.00;63287.88;5007207;28;20042;-62
2021/10/16 02:05:23;;;;;;;1.70;1.10;;;;;;;-140.79;100.00;63287.88;5007514;28;20048;-61
2021/10/16 02:07:48;;;;;;;1.92;1.20;;;;;;;-140.79;100.00;63287.88;5007132;28;20026;-61
2021/10/16 02:10:14;;;;;;;1.98;1.10;;;;;;;-140.79;100.00;63287.88;5007449;28;20037;-61
2021/10/16 02:12:39;;;;;;;2.17;1.17;;;;;;;-140.79;100.00;63287.88;5007291;28;20030;-61
2021/10/16 02:15:05;;;;;;;2.20;1.13;;;;;;;-140.79;100.00;63287.88;5014725;28;20021;-61
2021/10/16 02:17:30;;;;;;;2.30;1.40;;;;;;;-140.79;100.00;63287.88;5024788;28;20056;-62
2021/10/16 02:19:56;;;;;;;1.92;1.10;;;;;;;-140.79;100.00;63287.88;5026661;28;20025;-62
2021/10/16 02:22:22;;;;;;;1.65;1.02;;;;;;;-140.79;100.00;63287.88;5025474;28;20032;-62
2021/10/16 02:24:48;;;;;;;2.30;1.40;;;;;;;-140.79;100.00;63287.88;5026545;28;20075;-61
2021/10/16 02:27:13;;;;;;;1.85;1.10;;;;;;;-140.79;100.00;63287.88;5026348;28;20032;-61
2021/10/16 02:29:39;;;;;;;1.58;1.00;;;;;;;-140.79;100.00;63287.88;5025256;28;20036;-62
2021/10/16 02:32:04;;;;;;;1.70;1.00;;;;;;;-140.79;100.00;63287.88;5026878;28;20414;-61
2021/10/16 02:34:30;;;;;;;1.50;0.90;;;;;;;-140.79;100.00;63287.88;5026388;28;20048;-61
2021/10/16 02:36:55;;;;;;;2.30;1.27;;;;;;;-140.79;100.00;63287.88;5026140;28;20040;-61
2021/10/16 02:39:21;;;;;;;1.70;1.23;;;;;;;-140.79;100.00;63287.88;5026548;28;20560;-61
2021/10/16 02:41:46;;;;;;;2.65;1.02;;;;;;;-140.79;100.00;63287.88;5026394;28;20040;-61
2021/10/16 02:44:12;;;;;;;1.88;1.00;;;;;;;-140.79;100.00;63287.88;5026186;28;20024;-61
2021/10/16 02:46:37;;;;;;;2.35;1.20;;;;;;;-140.79;100.00;63287.88;5025779;28;20022;-62
2021/10/16 02:49:03;;;;;;;1.90;1.13;;;;;;;-140.79;100.00;63287.88;5024894;28;20723;-61
2021/10/16 02:51:28;;;;;;;1.55;1.00;;;;;;;-140.79;100.00;63287.88;5024596;28;20025;-61
2021/10/16 02:53:54;;;;;;;2.13;0.90;;;;;;;-140.79;100.00;63287.88;5025835;28;20029;-62
2021/10/16 02:56:19;;;;;;;2.05;1.17;;;;;;;-140.79;100.00;63287.88;5026180;28;20106;-61
2021/10/16 02:58:45;;;;;;;1.58;1.08;;;;;;;-140.79;100.00;63287.88;5025517;28;20040;-62
2021/10/16 03:01:10;;;;;;;1.73;1.10;;;;;;;-140.79;100.00;63287.88;5026035;28;20116;-62
2021/10/16 03:03:36;;;;;;;1.83;0.95;;;;;;;-140.79;100.00;63287.88;5008044;28;20132;-61
2021/10/16 03:06:01;;;;;;;1.73;1.00;;;;;;;-140.79;100.00;63287.88;5025780;28;20025;-62
2021/10/16 03:08:26;;;;;;;1.63;1.00;;;;;;;-140.79;100.00;63287.88;5023902;28;20076;-61
2021/10/16 03:10:52;;;;;;;2.20;1.20;;;;;;;-140.79;100.00;63287.88;5025793;28;20064;-61
2021/10/16 03:13:17;;;;;;;1.55;0.95;;;;;;;-140.79;100.00;63287.88;5025381;28;20595;-61
2021/10/16 03:15:43;;;;;;;2.15;1.10;;;;;;;-140.79;100.00;63287.88;5025871;28;20281;-62
2021/10/16 03:18:08;;;;;;;2.35;1.20;;;;;;;-140.79;100.00;63287.88;5023719;28;20021;-59
2021/10/16 03:20:34;;;;;;;1.45;0.70;;;;;;;-140.79;100.00;63287.88;5025302;28;20456;-61
2021/10/16 03:22:59;;;;;;;1.58;0.75;;;;;;;-140.79;100.00;63287.88;5007195;28;20045;-61
2021/10/16 03:25:26;;;;;;;1.65;0.90;;;;;;;-140.79;100.00;63287.88;5005735;28;20570;-61
2021/10/16 03:27:51;;;;;;;1.65;0.90;;;;;;;-140.79;100.00;63287.88;5005318;28;20484;-61
2021/10/16 03:30:17;;;;;;;1.88;0.80;;;;;;;-140.79;100.00;63287.88;5005675;28;20036;-62
2021/10/16 03:32:42;;;;;;;1.60;0.80;;;;;;;-140.79;100.00;63287.88;5005647;28;20030;-61
2021/10/16 03:35:08;;;;;;;1.40;0.80;;;;;;;-140.79;100.00;63287.88;5005510;28;20033;-61
2021/10/16 03:37:33;;;;;;;1.33;0.80;;;;;;;-140.79;100.00;63287.88;5005248;28;20041;-62
2021/10/16 03:39:59;;;;;;;1.38;0.80;;;;;;;-140.79;100.00;63287.88;5005498;28;20688;-61
2021/10/16 03:42:24;;;;;;;1.50;0.95;;;;;;;-140.79;100.00;63287.88;5005393;28;20029;-61
2021/10/16 03:44:50;;;;;;;1.35;0.90;;;;;;;-140.79;100.00;63287.88;5005528;28;20041;-61
2021/10/16 03:47:15;;;;;;;2.17;0.90;;;;;;;-140.79;100.00;63287.88;5010439;28;20506;-62
2021/10/16 03:49:41;;;;;;;1.30;0.80;;;;;;;-140.79;100.00;63287.88;5023906;28;20029;-61
2021/10/16 03:52:06;;;;;;;1.27;0.80;;;;;;;-140.79;100.00;63287.88;5024897;28;20029;-61
2021/10/16 03:54:31;;;;;;;1.45;0.90;;;;;;;-140.79;100.00;63287.88;5024616;28;20025;-62
2021/10/16 03:56:57;;;;;;;2.65;1.08;;;;;;;-140.79;100.00;63287.88;5007181;28;20021;-61
2021/10/16 03:59:23;;;;;;;2.08;1.20;;;;;;;-140.79;100.00;63287.88;5024439;28;20470;-61
2021/10/16 04:01:49;;;;;;;1.35;0.80;;;;;;;-140.79;100.00;63287.88;5024863;28;20128;-62
2021/10/16 04:04:14;;;;;;;1.95;0.90;;;;;;;-140.79;100.00;63287.88;5000435;28;20434;-62
2021/10/16 04:06:40;;;;;;;1.15;0.77;;;;;;;-140.79;100.00;63287.88;5024932;28;20036;-62
2021/10/16 04:09:05;;;;;;;1.20;0.70;;;;;;;-140.79;100.00;63287.88;5024037;28;20139;-60
2021/10/16 04:11:31;;;;;;;1.95;0.80;;;;;;;-140.79;100.00;63287.88;5023366;28;20082;-60
2021/10/16 04:13:56;;;;;;;1.50;0.75;;;;;;;-140.79;100.00;63287.88;5021175;28;20056;-66
2021/10/16 04:16:21;;;;;;;1.17;0.68;;;;;;;-140.79;100.00;63287.88;5002742;28;20415;-66
2021/10/16 04:18:47;;;;;;;1.10;0.80;;;;;;;-140.79;100.00;63287.88;5003816;28;20550;-66
2021/10/16 04:21:12;;;;;;;1.25;0.80;;;;;;;-140.79;100.00;63287.88;4995201;28;20050;-66
2021/10/16 04:23:38;;;;;;;1.30;0.70;;;;;;;-140.79;100.00;63287.88;4985720;28;20022;-66
2021/10/16 04:26:03;;;;;;;1.45;0.80;;;;;;;-140.79;100.00;63287.88;4985651;28;20042;-65
2021/10/16 04:28:29;;;;;;;1.30;0.77;;;;;;;-140.79;100.00;63287.88;4985667;28;20052;-65
2021/10/16 04:30:54;;;;;;;1.27;0.73;;;;;;;-140.79;100.00;63287.88;4984766;28;20637;-66
2021/10/16 04:33:20;;;;;;;1.25;0.60;;;;;;;-140.79;100.00;63287.88;4987027;28;20025;-66
2021/10/16 04:35:45;;;;;;;1.17;0.63;;;;;;;-140.79;100.00;63287.88;5003482;28;20044;-65
2021/10/16 04:38:11;;;;;;;1.00;0.60;;;;;;;-140.79;100.00;63287.88;4986852;28;20029;-65
2021/10/16 04:40:36;;;;;;;1.08;0.70;;;;;;;-140.79;100.00;63287.88;4985607;28;20440;-65
2021/10/16 04:43:05;;;;;;;1.38;0.70;;;;;;;-140.79;100.00;63287.88;5000047;28;20030;-64
2021/10/16 04:45:31;;;;;;;1.20;0.65;;;;;;;-140.79;100.00;63287.88;4999425;28;20026;-63
2021/10/16 04:47:56;;;;;;;1.30;0.60;;;;;;;-140.79;100.00;63287.88;4986374;28;20064;-65
2021/10/16 04:50:21;;;;;;;0.85;0.50;;;;;;;-140.79;100.00;63287.88;4988482;28;20056;-62
2021/10/16 04:52:47;;;;;;;1.45;0.70;;;;;;;-140.79;100.00;63287.88;5000917;28;20026;-63
2021/10/16 04:55:12;;;;;;;0.90;0.63;;;;;;;-140.79;100.00;63287.88;4995072;28;20076;-64
2021/10/16 04:57:38;;;;;;;1.05;0.60;;;;;;;-140.79;100.00;63287.88;5004387;28;20436;-63
2021/10/16 05:00:06;;;;;;;1.05;0.60;;;;;;;-140.79;100.00;63287.88;5002915;28;20025;-63
2021/10/16 05:02:32;;;;;;;1.15;0.60;;;;;;;-140.79;100.00;63287.88;5004680;28;20046;-62
2021/10/16 05:04:57;;;;;;;1.05;0.52;;;;;;;-140.79;100.00;63287.88;5004496;28;20444;-63
2021/10/16 05:07:22;;;;;;;1.10;0.65;;;;;;;-140.79;100.00;63287.88;5004592;28;20030;-62
2021/10/16 05:09:49;;;;;;;0.98;0.60;;;;;;;-140.79;100.00;63287.88;5004387;28;20029;-63
2021/10/16 05:12:15;;;;;;;1.38;0.70;;;;;;;-140.79;100.00;63287.88;5006349;28;20608;-60
2021/10/16 05:14:41;;;;;;;1.58;0.57;;;;;;;-140.79;100.00;63287.88;5007973;28;20032;-60
2021/10/16 05:17:07;;;;;;;0.70;0.40;;;;;;;-140.79;100.00;63287.88;5007956;28;20022;-65
2021/10/16 05:19:32;;;;;;;1.02;0.68;;;;;;;-140.79;100.00;63287.88;4995031;28;20030;-62
2021/10/16 05:21:57;;;;;;;0.88;0.50;;;;;;;-140.79;100.00;63287.88;5006920;28;20030;-62
2021/10/16 05:24:23;;;;;;;0.90;0.43;;;;;;;-140.79;100.00;63287.88;4987691;28;20481;-61
2021/10/16 05:26:48;;;;;;;2.08;0.60;;;;;;;-140.79;100.00;63287.88;4987687;28;20038;-63
2021/10/16 05:29:14;;;;;;;0.88;0.43;;;;;;;-140.79;100.00;63287.88;5004811;28;20022;-62
2021/10/16 05:31:39;;;;;;;0.95;0.50;;;;;;;-140.79;100.00;63287.88;4999109;28;20095;-61
2021/10/16 05:34:05;;;;;;;0.75;0.45;;;;;;;-140.79;100.00;63287.88;5023280;28;20083;-61
2021/10/16 05:36:30;;;;;;;1.30;0.70;;;;;;;-140.79;100.00;63287.88;5026008;28;20033;-62
2021/10/16 05:38:55;;;;;;;1.45;0.57;;;;;;;-140.79;100.00;63287.88;5024698;28;20030;-62
2021/10/16 05:41:21;;;;;;;1.75;0.60;;;;;;;-140.79;100.00;63287.88;5018016;28;20030;-66
2021/10/16 05:43:46;;;;;;;1.10;0.60;;;;;;;-140.79;100.00;63287.88;4999578;28;20034;-64
2021/10/16 05:46:12;;;;;;;0.73;0.40;;;;;;;-140.79;100.00;63287.88;5007443;28;20021;-62
2021/10/16 05:48:37;;;;;;;0.65;0.38;;;;;;;-140.79;100.00;63287.88;5006447;28;20022;-62
2021/10/16 05:51:03;;;;;;;1.13;0.52;;;;;;;-140.79;100.00;63287.88;5004165;28;20623;-65
2021/10/16 05:53:28;;;;;;;1.20;0.60;;;;;;;-140.79;100.00;63287.88;5005828;28;20060;-63
2021/10/16 05:55:54;;;;;;;0.98;0.52;;;;;;;-140.79;100.00;63287.88;4990065;28;20084;-63
2021/10/16 05:58:19;;;;;;;1.00;0.60;;;;;;;-140.79;100.00;63287.88;4987295;28;20025;-62
2021/10/16 06:00:45;;;;;;;1.08;0.50;;;;;;;-140.79;100.00;63287.88;4989401;28;20113;-62
2021/10/16 06:03:10;;;;;;;1.90;0.60;;;;;;;-140.79;100.00;63287.88;4990434;28;20107;-62
2021/10/16 06:05:37;;;;;;;1.60;0.77;;;;;;;-140.79;100.00;63287.88;4988729;28;20551;-63
2021/10/16 06:08:03;;;;;;;1.10;0.60;;;;;;;-140.79;100.00;63287.88;4989179;28;20030;-62
2021/10/16 06:10:28;;;;;;;1.63;0.60;;;;;;;-140.79;100.00;63287.88;4987269;28;20065;-63
2021/10/16 06:12:54;;;;;;;0.82;0.47;;;;;;;-140.79;100.00;63287.88;5000775;28;20022;-63
2021/10/16 06:15:19;;;;;;;1.67;0.57;;;;;;;-140.79;100.00;63287.88;5006900;28;20022;-63
2021/10/16 06:17:45;;;;;;;1.00;0.47;;;;;;;-140.79;100.00;63287.88;5006330;28;20033;-64
2021/10/16 06:20:10;;;;;;;0.70;0.30;;;;;;;-140.79;100.00;63287.88;5006503;28;20033;-62
2021/10/16 06:22:36;;;;;;;1.63;0.60;;;;;;;-140.79;100.00;63287.88;5006039;28;20025;-63
2021/10/16 06:25:01;;;;;;;0.82;0.50;;;;;;;-140.79;100.00;63287.88;5006399;28;20021;-62
2021/10/16 06:27:27;;;;;;;1.15;0.60;;;;;;;-140.79;100.00;63287.88;5006104;28;20022;-62
2021/10/16 06:29:53;;;;;;;1.40;0.50;;;;;;;-140.79;100.00;63287.88;5004732;28;20500;-61
2021/10/16 06:32:18;;;;;;;1.15;0.60;;;;;;;-140.79;100.00;63287.88;5007734;28;20030;-62
2021/10/16 06:34:44;;;;;;;0.90;0.50;;;;;;;-140.79;100.00;63287.88;5026031;28;20541;-62
2021/10/16 06:37:09;;;;;;;0.80;0.45;;;;;;;-140.79;100.00;63287.88;5025838;28;20048;-62
2021/10/16 06:39:35;;;;;;;1.65;0.57;;;;;;;-140.79;100.00;63287.88;5026004;28;20033;-62
2021/10/16 06:42:00;;;;;;;1.30;0.47;;;;;;;-140.79;100.00;63287.88;5025657;28;20014;-62
2021/10/16 06:44:26;;;;;;;1.10;0.60;;;;;;;-140.79;100.00;63287.88;5025697;28;20413;-69
2021/10/16 06:46:51;;;;;;;1.00;0.50;;;;;;;-140.79;100.00;63287.88;5006495;28;20042;-61
2021/10/16 06:49:17;;;;;;;3.13;0.60;;;;;;;-140.79;100.00;63287.88;5001647;28;20037;-64
2021/10/16 06:51:42;;;;;;;3.53;0.45;;;;;;;-140.79;100.00;63287.88;5005919;28;20025;-63
2021/10/16 06:54:09;;;;;;;0.80;0.40;;;;;;;-140.79;100.00;63287.88;5006045;28;20041;-63
2021/10/16 06:56:35;;;;;;;0.82;0.40;;;;;;;-140.79;100.00;63287.88;5006045;28;20058;-63
2021/10/16 06:59:01;;;;;;;1.00;0.50;;;;;;;-140.79;100.00;63287.88;5004401;28;20769;-64
2021/10/16 07:01:26;;;;;;;1.38;0.63;;;;;;;-140.79;100.00;63287.88;5002555;28;20025;-63
2021/10/16 07:03:52;;;;;;;1.55;0.40;;;;;;;-140.79;100.00;63287.88;4987824;28;20065;-63
2021/10/16 07:06:17;;;;;;;1.27;0.40;;;;;;;-140.79;100.00;63287.88;5004414;28;20026;-65
2021/10/16 07:08:43;;;;;;;0.90;0.38;;;;;;;-140.79;100.00;63287.88;5006014;28;20033;-65
2021/10/16 07:11:08;;;;;;;1.05;0.50;;;;;;;-140.79;100.00;63287.88;5005576;28;20064;-65
2021/10/16 07:13:34;;;;;;;1.02;0.40;;;;;;;-140.79;100.00;63287.88;5005627;28;20010;-63
2021/10/16 07:16:00;;;;;;;1.38;0.65;;;;;;;-140.79;100.00;63287.88;5005546;28;20104;-65
2021/10/16 07:18:25;;;;;;;1.05;0.40;;;;;;;-140.79;100.00;63287.88;4987992;28;20037;-65
2021/10/16 07:20:51;;;;;;;0.90;0.40;;;;;;;-140.79;100.00;63287.88;5005564;28;20021;-66
2021/10/16 07:23:20;;;;;;;1.17;0.60;;;;;;;-140.79;100.00;63287.88;5004352;28;20030;-66
2021/10/16 07:25:46;;;;;;;0.80;0.57;;;;;;;-140.79;100.00;63287.88;5004491;28;20046;-62
2021/10/16 07:28:11;;;;;;;1.60;0.70;;;;;;;-140.79;100.00;63287.88;5001778;28;20661;-64
2021/10/16 07:30:37;;;;;;;1.05;0.55;;;;;;;-140.79;100.00;63287.88;5005708;28;20030;-63
2021/10/16 07:33:03;;;;;;;1.67;0.50;;;;;;;-140.79;100.00;63287.88;4988963;28;20026;-66
2021/10/16 07:35:28;;;;;;;0.95;0.50;;;;;;;-140.79;100.00;63287.88;4999396;28;20064;-64
2021/10/16 07:37:54;;;;;;;0.90;0.40;;;;;;;-140.79;100.00;63287.88;4998313;28;20033;-64
2021/10/16 07:40:19;;;;;;;1.27;0.57;;;;;;;-140.79;100.00;63287.88;5003624;28;20026;-62
2021/10/16 07:42:45;;;;;;;1.08;0.70;;;;;;;-140.79;100.00;63287.88;5005256;28;20010;-62
2021/10/16 07:45:10;;;;;;;0.98;0.50;;;;;;;-140.79;100.00;63287.88;5004948;28;20025;-62
2021/10/16 07:47:36;;;;;;;1.95;0.70;;;;;;;-140.79;100.00;63287.88;5004845;28;20040;-62
2021/10/16 07:50:02;;;;;;;1.58;0.70;;;;;;;-140.79;100.00;63287.88;5004979;28;20026;-63
2021/10/16 07:52:27;;;;;;;0.95;0.52;;;;;;;-140.79;100.00;63287.88;5004989;28;20407;-62
2021/10/16 07:54:53;;;;;;;1.30;0.55;;;;;;;-140.79;100.00;63287.88;5004972;28;20022;-62
2021/10/16 07:57:19;;;;;;;1.35;0.60;;;;;;;-140.79;100.00;63287.88;5003203;28;20025;-62
2021/10/16 07:59:45;;;;;;;1.15;0.55;;;;;;;-140.79;100.00;63287.88;4990457;28;20065;-63
2021/10/16 08:02:10;;;;;;;2.05;0.77;;;;;;;-140.79;100.00;63287.88;4999795;28;20485;-63
2021/10/16 08:04:36;;;;;;;1.52;0.73;;;;;;;-140.79;100.00;63287.88;4989003;28;20034;-64
2021/10/16 08:07:01;;;;;;;1.83;0.68;;;;;;;-140.79;100.00;63287.88;4985912;28;20030;-63
2021/10/16 08:09:27;;;;;;;1.27;0.63;;;;;;;-140.79;100.00;63287.88;4998197;28;20116;-64
2021/10/16 08:11:52;;;;;;;1.38;0.68;;;;;;;-140.79;100.00;63287.88;5004413;28;20084;-63
2021/10/16 08:14:18;;;;;;;1.63;0.70;;;;;;;-140.79;100.00;63287.88;5004599;28;20037;-62
2021/10/16 08:16:43;;;;;;;2.83;0.82;;;;;;;-140.79;100.00;63287.88;5004474;28;20049;-63
2021/10/16 08:19:08;;;;;;;1.95;0.90;;;;;;;-140.79;100.00;63287.88;5004457;28;20135;-63
2021/10/16 08:21:35;;;;;;;1.85;0.57;;;;;;;-140.79;100.00;63287.88;5004416;28;20635;-63
2021/10/16 08:24:01;;;;;;;1.33;0.60;;;;;;;-140.79;100.00;63287.88;5004293;28;20492;-63
2021/10/16 08:26:26;;;;;;;1.33;0.93;;;;;;;-140.79;100.00;63287.88;4994166;28;20044;-65
2021/10/16 08:28:52;;;;;;;1.60;0.75;;;;;;;-140.79;100.00;63287.88;5002496;28;20037;-63
2021/10/16 08:31:17;;;;;;;1.70;0.70;;;;;;;-140.79;100.00;63287.88;5011129;28;20060;-63
2021/10/16 08:33:43;;;;;;;1.40;0.60;;;;;;;-140.79;100.00;63287.88;5018796;28;20393;-63
2021/10/16 08:36:08;;;;;;;1.70;0.70;;;;;;;-140.79;100.00;63287.88;5023757;28;20771;-65
2021/10/16 08:38:34;;;;;;;3.22;0.95;;;;;;;-140.79;100.00;63287.88;5024173;28;20409;-65
2021/10/16 08:40:59;;;;;;;1.25;0.57;;;;;;;-140.79;100.00;63287.88;5023928;28;20021;-60
2021/10/16 08:43:25;;;;;;;1.42;0.70;;;;;;;-140.79;100.00;63287.88;5024005;28;20705;-61
2021/10/16 08:45:50;;;;;;;1.58;0.80;;;;;;;-140.79;100.00;63287.88;5026502;28;20025;-61
2021/10/16 08:48:16;;;;;;;1.45;0.60;;;;;;;-140.79;100.00;63287.88;5009866;28;20029;-62
2021/10/16 08:50:41;;;;;;;2.30;0.95;;;;;;;-140.79;100.00;63287.88;5028261;28;20021;-62
2021/10/16 08:53:06;;;;;;;1.60;0.80;;;;;;;-140.79;100.00;63287.88;5028075;28;20017;-62
2021/10/16 08:55:32;;;;;;;1.73;0.70;;;;;;;-140.79;100.00;63287.88;5027821;28;20523;-62
2021/10/16 08:57:58;;;;;;;2.03;1.10;;;;;;;-140.79;100.00;63287.88;5027719;28;20396;-62
2021/10/16 09:00:51;;;;;;;2.50;0.95;;;;;;;-140.79;100.00;63287.88;5027646;28;20025;-62
2021/10/16 09:03:22;;;;;;;1.60;0.70;;;;;;;-140.79;100.00;63287.88;5025942;28;20060;-61
2021/10/16 09:06:03;;;;;;;2.33;0.80;;;;;;;-140.79;100.00;63287.88;5027998;28;20140;-61
2021/10/16 09:08:46;;;;;;;1.45;0.70;;;;;;;-140.79;100.00;63287.88;5027682;28;20578;-61
2021/10/16 09:11:27;;;;;;;1.23;0.55;;;;;;;-140.79;100.00;63287.88;5025834;28;20032;-61
2021/10/16 09:13:55;;;;;;;1.85;0.90;;;;;;;-140.79;100.00;63287.88;5010248;28;20500;-63
2021/10/16 09:16:27;;;;;;;2.72;0.90;;;;;;;-140.79;100.00;63287.88;4989020;28;20504;-62
2021/10/16 09:18:56;;;;;;;1.30;0.70;;;;;;;-140.79;100.00;63287.88;4990388;28;20030;-64
2021/10/16 09:21:23;;;;;;;1.97;0.80;;;;;;;-140.79;100.00;63287.88;5005286;28;20030;-64
2021/10/16 09:23:59;;;;;;;1.92;0.70;;;;;;;-140.79;100.00;63287.88;4990453;28;20281;-64
2021/10/16 09:26:24;;;;;;;1.88;0.88;;;;;;;-140.79;100.00;63287.88;4989304;28;20053;-64
2021/10/16 09:29:01;;;;;;;1.88;0.70;;;;;;;-140.79;100.00;63287.88;4956523;28;20049;-64
2021/10/16 09:31:36;;;;;;;1.55;0.90;;;;;;;-140.79;100.00;63287.88;5009436;28;20649;-64
2021/10/16 09:34:02;;;;;;;2.20;0.80;;;;;;;-140.79;100.00;63287.88;4991245;28;20022;-65
2021/10/16 09:36:30;;;;;;;1.50;0.70;;;;;;;-140.79;100.00;63287.88;4988427;28;20149;-66
2021/10/16 09:38:56;;;;;;;1.48;0.77;;;;;;;-140.79;100.00;63287.88;5002934;28;20038;-66
2021/10/16 09:41:28;;;;;;;2.08;0.98;;;;;;;-140.79;100.00;63287.88;4987635;28;20401;-66
2021/10/16 09:43:54;;;;;;;1.75;0.90;;;;;;;-140.79;100.00;63287.88;5006887;28;20033;-66
2021/10/16 09:46:20;;;;;;;2.17;0.90;;;;;;;-140.79;100.00;63287.88;5006746;28;20034;-64
2021/10/16 09:48:46;;;;;;;2.08;0.90;;;;;;;-140.79;100.00;63287.88;4989509;28;20029;-63
2021/10/16 09:51:14;;;;;;;1.70;0.70;;;;;;;-140.79;100.00;63287.88;4989909;28;20033;-62
2021/10/16 09:53:44;;;;;;;2.38;0.80;;;;;;;-140.79;100.00;63287.88;4988221;28;20033;-63
2021/10/16 09:56:11;;;;;;;2.22;0.90;;;;;;;-140.79;100.00;63287.88;5004749;28;20022;-63
2021/10/16 09:58:37;;;;;;;2.35;0.93;;;;;;;-140.79;100.00;63287.88;5006989;28;20045;-62
2021/10/16 10:01:02;;;;;;;2.53;1.00;;;;;;;-140.79;100.00;63287.88;4989690;28;20033;-63
2021/10/16 10:03:28;;;;;;;3.03;0.82;;;;;;;-140.79;100.00;63287.88;5005712;28;20595;-62
2021/10/16 10:05:54;;;;;;;1.85;0.90;;;;;;;-140.79;100.00;63287.88;5005843;28;20452;-63
2021/10/16 10:08:19;;;;;;;2.08;0.80;;;;;;;-140.79;100.00;63287.88;4993030;28;20101;-63
2021/10/16 10:10:48;;;;;;;3.22;1.00;;;;;;;-140.79;100.00;63287.88;5005512;28;20032;-63
2021/10/16 10:13:14;;;;;;;2.92;0.90;;;;;;;-140.79;100.00;63287.88;5005816;28;20029;-62
2021/10/16 10:15:40;;;;;;;2.33;1.10;;;;;;;-140.79;100.00;63287.88;5007470;28;20026;-61
2021/10/16 10:20:53;;;;;;;3.30;1.50;;;;;;;-140.79;100.00;63287.88;5004537;28;20033;-62
2021/10/16 10:23:23;;;;;;;2.85;1.27;;;;;;;-140.79;100.00;63287.88;5006256;28;20026;-61
2021/10/16 10:25:48;;;;;;;2.85;1.20;;;;;;;-140.79;100.00;63287.88;5004956;28;20499;-62
2021/10/16 10:28:15;;;;;;;2.85;1.05;;;;;;;-140.79;100.00;63287.88;5021371;28;20022;-62
2021/10/16 10:30:41;;;;;;;4.18;1.00;;;;;;;-140.79;100.00;63287.88;5005864;28;20034;-62
2021/10/16 10:33:15;;;;;;;3.50;1.27;;;;;;;-140.79;100.00;63287.88;5014881;28;20044;-64
2021/10/16 10:35:48;;;;;;;2.33;1.10;;;;;;;-140.79;100.00;63287.88;5025803;28;20052;-64
2021/10/16 10:38:43;;;;;;;2.67;1.27;;;;;;;-140.79;100.00;63287.88;5026009;28;20676;-64
2021/10/16 10:41:29;;;;;;;2.70;1.00;;;;;;;-140.79;100.00;63287.88;5005969;28;20039;-63
2021/10/16 10:43:55;;;;;;;3.30;1.13;;;;;;;-140.79;100.00;63287.88;5004091;28;20034;-63
2021/10/16 10:46:24;;;;;;;2.40;1.30;;;;;;;-140.79;100.00;63287.88;5020980;28;20109;-63
2021/10/16 10:48:50;;;;;;;2.10;0.90;;;;;;;-140.79;100.00;63287.88;5005337;28;20566;-66
2021/10/16 10:51:42;;;;;;;3.00;1.20;;;;;;;-140.79;100.00;63287.88;5004860;28;20038;-64
2021/10/16 10:54:16;;;;;;;2.40;0.90;;;;;;;-140.79;100.00;63287.88;5002685;28;20038;-66
2021/10/16 10:56:44;;;;;;;2.03;0.82;;;;;;;-140.79;100.00;63287.88;4994144;28;20408;-66
2021/10/16 10:59:12;;;;;;;2.35;1.00;;;;;;;-140.79;100.00;63287.88;5004307;28;20037;-67
2021/10/16 11:01:48;;;;;;;2.42;1.00;;;;;;;-140.79;100.00;63287.88;5004330;28;20034;-66
2021/10/16 11:04:32;;;;;;;2.08;1.00;;;;;;;-140.79;100.00;63287.88;5005396;28;20049;-66
2021/10/16 11:07:03;;;;;;;2.85;1.20;;;;;;;-140.79;100.00;63287.88;4994292;28;20037;-66
2021/10/16 11:09:28;;;;;;;3.35;1.02;;;;;;;-140.79;100.00;63287.88;5004326;28;20034;-66
2021/10/16 11:11:54;;;;;;;2.63;1.10;;;;;;;-140.79;100.00;63287.88;4987799;28;20420;-66